空港情報

日本の空港の気象及び、管制情報です。
気象情報はより詳細な情報が取得できる「AVIATION WEATER CENTER」 から取得しているため、VATSIMの気象情報と若干のタイムラグが生じることがあります。

VRCのフィールド設定用空港一覧はこちらをご覧ください。

RJCG Sapporo Control

RJCW / Wakkanai

NO RADAR

RADIO

08/26 2200x45

民間 civil

過去5時間に発表されたMETARがありません。

RJER / Rishiri

NO RADAR

REMOTE

25/07 1800x45

民間 civil

過去5時間に発表されたMETARがありません。

RJEB / Monbetsu

NO RADAR

REMOTE

32/14 2000x45

民間 civil

過去5時間に発表されたMETARがありません。

RJCM / Memanbetsu
VMC

NO RADAR

TOWER

36/18 2500x45

民間 civil

9999

170@7KT

30.03

RJCM 251100Z 17007KT 9999 FEW050 BKN/// M02/M04 Q1017

RJEC / Asahikawa
VMC

NO RADAR

TOWER

34/16 2500x60

民間 civil

9999

170@8KT

30.03

RJEC 251100Z 17008KT 9999 FEW010 BKN050 02/M06 Q1017

RJCN / Nakashibetsu

NO RADAR

RADIO

08/26 2000x45

民間 civil

過去5時間に発表されたMETARがありません。

RJCK / Kushiro
VMC

NO RADAR

TOWER

17/35 2500x45

民間 civil

9999

320@3KT

30.06

RJCK 251100Z 32003KT 9999 FEW040 BKN/// 03/M04 Q1018

RJCO / Sapporo
VMC

RJCO_APP

TOWER

14/32 1500x30

共用 dual

9999

160@6KT

30.12

RJCO 251100Z 16006KT 9999 FEW025 SCT050 BKN090 05/M00 Q1020

RJCJ / Chitose

RJCC_APP

TOWER

36R/18L 3000x60
36L/18R 2700x45

自衛隊 military

過去5時間に発表されたMETARがありません。

RJCC / NewChitose
VMC

RJCC_APP

TOWER

01L/19R 3000x60
01R/19L 3000x60

民間 civil

9999

170@4KT

30.03

RJCC 251530Z 17004KT 9999 FEW025 BKN100 BKN/// 01/00 Q1017 RMK 1CU025 5AC100 A3005

RJCB / Obihiro
VMC

NO RADAR

TOWER

35/17 2500x45

民間 civil

9999

240@2KT

30.06

RJCB 251100Z 24002KT 9999 FEW040 BKN/// M01/M03 Q1018

RJEO / Okushiri

NO RADAR

REMOTE

12/30 1500x45

民間 civil

過去5時間に発表されたMETARがありません。

RJCH / Hakodate
VMC

RJCH_APP

TOWER

12/30 3000x45

民間 civil

9999

290@7KT

30.12

RJCH 251100Z 29007KT 9999 FEW030 BKN060 06/01 Q1020

RJSA / Aomori
VMC

NO RADAR

TOWER

24/06 3000x60

民間 civil

9999

240@6KT

30.12

RJSA 251200Z 24006KT 9999 -SHRA FEW010 BKN020 BKN040 06/05 Q1020

RJSO / Ominato

RJSM_APP

TOWER

04/22 600x45

自衛隊 military

過去5時間に発表されたMETARがありません。

RJSM / Misawa
VMC

RJSM_APP

TOWER

10/28 3050x45

共用 dual

9999

270@3KT

30.06

RJSM 251500Z 27003KT 9999 SCT050 BKN080 07/05 Q1018

RJSH / Hachinohe

RJSM_APP

TOWER

25/07 2250x45

自衛隊 military

過去5時間に発表されたMETARがありません。

RJSK / Akita
VMC

NO RADAR

TOWER

10/28 2500x60

民間 civil

9999

140@3KT

30.12

RJSK 251200Z 14003KT 9999 FEW030 BKN060 BKN080 05/04 Q1020

RJSI / Hanamaki

NO RADAR

RADIO

20/02 2500x45

民間 civil

過去5時間に発表されたMETARがありません。

RJSR / Odate-Noshiro

NO RADAR

REMOTE

11/29 2000x45

民間 civil

過去5時間に発表されたMETARがありません。

RJTG Tokyo Control

RJSY / Shonai
VMC

NO RADAR

RADIO

09/27 2000x45

民間 civil

9999

090@7KT

30.12

RJSY 251200Z 09007KT 9999 FEW030 SCT050 BKN080 07/05 Q1020

RJSC / Yamagata

NO RADAR

RADIO

01/19 2000x45

民間 civil

過去5時間に発表されたMETARがありません。

RJST / Matsushima

RJSS_APP

TOWER

07/25 2071x46
15/33 1500x46

自衛隊 military

過去5時間に発表されたMETARがありません。

RJSS / Sendai
VMC

RJSS_APP

TOWER

27/09 3000x45
12/30 1200x45

民間 civil

9999

300@2KT

30.12

RJSS 251200Z 30002KT 9999 FEW030 07/05 Q1020

RJSD / Sado

NO RADAR

REMOTE

10/28 890x25

民間 civil

過去5時間に発表されたMETARがありません。

RJSN / Niigata
VMC

RJSN_APP

TOWER

10/28 2500x45
04/22 1314x45

民間 civil

9999

200@7KT

30.15

RJSN 251200Z 20007KT 9999 -SHRA FEW030 SCT040 BKN050 11/07 Q1021

RJSF / Fukushima
IMC

NO RADAR

RADIO

01/19 2500x60

民間 civil

0200

360@5KT

30.12

RJSF 251126Z 36005KT 0200 R01/0300V0900D FG SCT001 BKN002 07/07 Q1020 RMK 3ST001 7ST002 A3013

RJAH / Ibaraki/Hyakuri
IMC

RJAH_APP

TOWER

03L/21R 2700x45
03R/21L 2700x45

共用 dual

0800

000@0KT

30.09

RJAH 251530Z 00000KT 0800 R03/0600V1000D FG SCT000 BKN001 09/08 Q1019 RMK 3ST000 7ST001 A3010 R0800

RJTT / Tokyo
VMC

RJTT_APP

TOWER

34LR/16RL 3000x60
04/22&05/23 2500x60

民間 civil

9999

140@3KT

30.09

RJTT 251530Z 14003KT 9999 FEW010 11/10 Q1019 NOSIG RMK 1CU010 A3011

RJAA / Narita
IMC

RJTT_APP

TOWER

34L/16R 4000x60
34R/16L 2500x60

民間 civil

0800

270@3KT

30.09

RJAA 251530Z 27003KT 230V300 0800 R16R/P2000N R16L/0325N FG SCT001 BKN002 10/10 Q1019 TEMPO 0500 FG RMK 3ST001 5ST002 A3012

RJTL / Shimofusa
IMC

RJTT_APP

TOWER

19/01 2250x45

自衛隊 military

4900

000@2KT

30.12

RJTL 251242Z VRB02KT 4900 BR BKN005 BKN040 11/10 Q1020 RMK 5ST005 7SC040 A3015

RJTE / Tateyama

RJTT_APP

TOWER

09/27 300x45

自衛隊 military

過去5時間に発表されたMETARがありません。

RJTO / Oshima

NO RADAR

RADIO

03/21 1800x45

民間 civil

過去5時間に発表されたMETARがありません。

RJTK / Kisarazu

NO RADAR

TOWER

02/20 1830x45

自衛隊 military

過去5時間に発表されたMETARがありません。

RJAN / Niijima

NO RADAR

REMOTE

11/29 800x25

自衛隊 military

過去5時間に発表されたMETARがありません。

RJAZ / Kozushima

NO RADAR

REMOTE

11/29 800x25

民間 civil

過去5時間に発表されたMETARがありません。

RJTH / Hachijojima

NO RADAR

RADIO

26/08 2000x45

民間 civil

過去5時間に発表されたMETARがありません。

RJTF / Chofu

NO RADAR

Flight Service

35/17 800x30

民間 civil

過去5時間に発表されたMETARがありません。

RJTQ / Miyake

NO RADAR

REMOTE

02/20 1200x30

民間 civil

過去5時間に発表されたMETARがありません。

RJTC / Tachikawa

NO RADAR

TOWER

01/19 900x45

自衛隊 military

過去5時間に発表されたMETARがありません。

RJTA / Atsugi

NO RADAR

TOWER

01/19 2438x45

自衛隊 military

過去5時間に発表されたMETARがありません。

RJTU / Utsunomiya

RJTY_APP

TOWER

01/19 1700x45

自衛隊 military

過去5時間に発表されたMETARがありません。

RJTJ / Iruma

RJTY_APP

TOWER

17/35 2000x45

自衛隊 military

過去5時間に発表されたMETARがありません。

RJTY / Yokota
VMC

RJTY_APP

TOWER

18/36 3353x60

自衛隊 military

9999

000@0KT

30.16

RJTY 251456Z AUTO 00000KT 10SM CLR 09/09 A3016 RMK AO2 SLP220 T00930088 401230080 57012 FZRANO $

RJAF / Matsumoto

NO RADAR

RADIO

18/36 2000x45

民間 civil

過去5時間に発表されたMETARがありません。

RJNS / Shizuoka
VMC

NO RADAR

RADIO

30/12 2500x60

民間 civil

9999

250@14KT

30.09

RJNS 251200Z 25014KT 9999 FEW025 13/02 Q1019

RJNY / Yaizu-Shizuhama
VMC

NO RADAR

TOWER

27/09 1500x45

自衛隊 military

9999

320@6KT

30.09

RJNY 251231Z 32006KT 290V360 9999 FEW025 14/03 Q1019 RMK 1CU025 A3010

RJNH / Hamamatsu

RJNH_APP

TOWER

09/27 2550x60

自衛隊 military

過去5時間に発表されたMETARがありません。

RJGG / Chubu
VMC

RJGG_APP

TOWER

36/18 3500x60

民間 civil

9999

310@11KT

30.12

RJGG 251530Z 31011KT 9999 FEW030 14/09 Q1020 NOSIG

RJNA / Nagoya

RJGG_APP

TOWER

34/16 2740x45

民間 civil

過去5時間に発表されたMETARがありません。

RJNG / Gifu

RJGG_APP

TOWER

28/10 2710x46

自衛隊 military

過去5時間に発表されたMETARがありません。

RJOE / Akeno

RJOE_APP

TOWER

13/31 500x30
04/22 500x30

自衛隊 military

過去5時間に発表されたMETARがありません。

RJNK / Komatsu
VMC

RJNK_APP

TOWER

06/24 2700x45

共用 dual

9999

160@3KT

30.18

RJNK 251500Z 16003KT 9999 FEW060 09/06 Q1022

RJNW / Noto

NO RADAR

RADIO

25/07 2000x45

民間 civil

過去5時間に発表されたMETARがありません。

RJNT / Toyama
VMC

NO RADAR

TOWER

20/02 2000x45

民間 civil

9999

160@2KT

30.18

RJNT 251200Z 16002KT 9999 FEW060 BKN080 10/06 Q1022

RJNF / Fukui

NO RADAR

REMOTE

18/36 1200x30

民間 civil

過去5時間に発表されたMETARがありません。

RJBD / Nanki-Shirahama

NO RADAR

RADIO

15/33 2000x45

民間 civil

過去5時間に発表されたMETARがありません。

RJOY / Yao

RJBB_APP

TOWER

27/09 1490x45
13/31 1200x30

民間 civil

過去5時間に発表されたMETARがありません。

RJOO / Osaka
VMC

RJBB_APP

TOWER

32L/14R 3000x60
32R/14L 1830x45

民間 civil

9999

300@3KT

30.18

RJOO 251100Z 30003KT 9999 FEW045 10/07 Q1022 RMK 1SC045 A3021

RJOB / Okayama
VMC

RJBB_APP

TOWER

07/25 3000x45

民間 civil

9999

000@2KT

30.18

RJOB 251200Z VRB02KT 9999 FEW020 BKN050 10/08 Q1022

RJBB / Kansai
VMC

RJBB_APP

TOWER

06R/24L 3500x60
06L/24R 4000x60

民間 civil

9999

100@3KT

30.18

RJBB 251530Z AUTO 10003KT 9999 NCD 12/07 Q1022 NOSIG

RJBE / Kobe
VMC

RJBB_APP

TOWER

09/27 2500x60

民間 civil

9999

070@3KT

30.18

RJBE 251300Z 07003KT 030V100 CAVOK 11/05 Q1022

RJBT / Tajima

NO RADAR

REMOTE

01/19 1200x30

民間 civil

過去5時間に発表されたMETARがありません。

RJOR / Tottori
VMC

NO RADAR

RADIO

10/28 2000x45

民間 civil

9999

140@8KT

30.18

RJOR 251200Z 14008KT 9999 FEW030 SCT050 11/09 Q1022

RJNO / Oki

NO RADAR

REMOTE

07/25 2000x45

民間 civil

過去5時間に発表されたMETARがありません。

RJOH / Miho
VMC

RJOH_APP

TOWER

25/07 2500x45

共用 dual

9999

190@4KT

30.21

RJOH 251500Z 19004KT 9999 FEW050 09/08 Q1023

RJOC / Izumo
VMC

RJOH_APP

RADIO

07/25 2000x45

共用 dual

9999

160@5KT

30.18

RJOC 251100Z 16005KT 9999 FEW015 10/09 Q1022

RJDG Fukuoka Control

RJOT / Takamatsu
VMC

RJBB_APP

TOWER

26/08 2500x60

民間 civil

9999

140@9KT

30.18

RJOT 251200Z 14009KT 9999 FEW030 09/06 Q1022

RJOK / Kochi
VMC

RJBB_APP

TOWER

32/14 2500x45

民間 civil

9999

350@6KT

30.18

RJOK 251100Z 35006KT 9999 FEW025 12/08 Q1022

RJOS / Tokushima
VMC

RJOS_APP

TOWER

29/11 2500x45

共用 dual

9999

300@8KT

30.18

RJOS 251500Z 30008KT 9999 FEW030 09/07 Q1022

RJOA / Hiroshima
VMC

RJOA_APP

TOWER

10/28 3000x60

民間 civil

9999

340@4KT

30.18

RJOA 251300Z 34004KT 9999 FEW020 11/08 Q1022

RJBH / Hiroshimanishi

NO RADAR

Flight Service

04/22 1800x45

民間 civil

過去5時間に発表されたMETARがありません。

RJOI / Iwakuni
VMC

RJOI_APP

TOWER

02/20 2440x60

共用 dual

9999

300@7KT

30.19

RJOI 251455Z 30007KT 9999 FEW030 12/08 A3019 RMK SLP223 T01170078 401830089 56003

RJOM / Matsuyama
VMC

RJOI_APP

TOWER

14/32 2500x45

民間 civil

9999

110@9KT

30.18

RJOM 251200Z 11009KT 9999 FEW030 12/08 Q1022

RJOZ / Ozuki

RJFZ_APP

TOWER

35/17 1201x61
12/30 899x46

自衛隊 military

過去5時間に発表されたMETARがありません。

RJOF / Hofu
VMC

RJFZ_APP

TOWER

30/12 1180x60
01/19 1480x45

自衛隊 military

9999

310@3KT

30.18

RJOF 251130Z 31003KT 9999 FEW030 11/08 Q1022 RMK 1CU030 A3020

RJDC / Yamaguchi-Ube
VMC

RJFZ_APP

RADIO

07/25 2500x45

民間 civil

9999

340@5KT

30.18

RJDC 251200Z 34005KT 9999 FEW025 12/10 Q1022

RJFR / Kitakyushu
VMC

RJFZ_APP

TOWER

18/36 2500x60

民間 civil

9999

300@5KT

30.21

RJFR 251500Z 30005KT 9999 FEW030 13/10 Q1023

RJFZ / Tsuiki

RJFZ_APP

TOWER

25/07 2399x46

自衛隊 military

過去5時間に発表されたMETARがありません。

RJOW / Iwami

NO RADAR

REMOTE

11/29 2000x45

民間 civil

過去5時間に発表されたMETARがありません。

RJDT / Tsushima
VMC

NO RADAR

REMOTE

32/14 1900x45

民間 civil

9999

050@3KT

30.21

RJDT 251100Z 05003KT 280V080 CAVOK 11/02 Q1023

RJFF / Fukuoka
VMC

RJFF_APP

TOWER

16/34 2800x60

民間 civil

9999

080@2KT

30.21

RJFF 251530Z AUTO 08002KT 9999 NCD 11/09 Q1023 NOSIG RMK A3021

RJFS / Saga
VMC

RJFF_APP

RADIO

29/11 2000x45

民間 civil

9999

290@5KT

30.18

RJFS 251400Z 29005KT 9999 FEW040 09/08 Q1022

RJFA / Ashiya

RJFF_APP

TOWER

12/30 1640x46

自衛隊 military

過去5時間に発表されたMETARがありません。

RJDB / Iki

RJFF_APP

REMOTE

20/02 1200x30

民間 civil

過去5時間に発表されたMETARがありません。

RJFO / Oita
VMC

RJFO_APP

TOWER

01/19 3000x45

民間 civil

9999

270@5KT

30.18

RJFO 251300Z 27005KT CAVOK 12/10 Q1022

RJFU / Nagasaki
VMC

RJFU_APP

TOWER

32/14 3000x60

民間 civil

9999

060@4KT

30.21

RJFU 251200Z 06004KT 330V090 9999 FEW030 12/07 Q1023

RJDU / Omura

RJFU_APP

TOWER

18/36 1200x30

自衛隊 military

過去5時間に発表されたMETARがありません。

RJFE / Fukue

NO RADAR

RADIO

03/21 2000x45

民間 civil

過去5時間に発表されたMETARがありません。

RJDO / Ojika

NO RADAR

REMOTE

03/21 800x30

民間 civil

過去5時間に発表されたMETARがありません。

RJDK / Kamigoto

NO RADAR

REMOTE

17/35 800x30

民間 civil

過去5時間に発表されたMETARがありません。

RJDA / Amakusa

NO RADAR

Flight Service

31/13 1000x30

民間 civil

過去5時間に発表されたMETARがありません。

RJFT / Kumamoto
VMC

RJFT_APP

TOWER

07/25 3000x45

民間 civil

9999

080@3KT

30.21

RJFT 251200Z 08003KT 9999 FEW030 10/10 Q1023

RJFN / Nyutabaru

RJFM_APP

TOWER

28/10 2701x46

自衛隊 military

過去5時間に発表されたMETARがありません。

RJFM / Miyazaki
VMC

RJFM_APP

TOWER

27/09 2500x45

民間 civil

9999

280@5KT

30.18

RJFM 251200Z 28005KT 9999 FEW025 BKN035 BKN045 17/10 Q1022

RJFK / Kagoshima
VMC

RJFK_APP

TOWER

34/16 3000x45

民間 civil

9999

010@5KT

30.18

RJFK 251200Z 01005KT 9999 FEW030 10/09 Q1022 RMK 1CU030 A3020

RJFY / Kanoya

RJFY_APP

TOWER

26L/08R 2250x45
26R/08L 1200x40

自衛隊 military

過去5時間に発表されたMETARがありません。

RJFG / Tanegashima

NO RADAR

RADIO

31/13 2000x45

民間 civil

過去5時間に発表されたMETARがありません。

RJFC / Yakushima

NO RADAR

REMOTE

14/32 1500x45

民間 civil

過去5時間に発表されたMETARがありません。

RJBG Kobe Control

ROAH / Naha
VMC

ROAH_APP

TOWER

36/18 3000x45

共用 dual

9999

030@12KT

30.12

ROAH 251530Z 03012KT 9999 FEW025 BKN040 22/16 Q1020 RMK 1CU025 6SC040 A3014

RORA / Aguni

ROAH_APP

REMOTE

01/19 800x25

民間 civil

過去5時間に発表されたMETARがありません。

ROKJ / Kumejima

ROAH_APP

REMOTE

03/21 2000x45

民間 civil

過去5時間に発表されたMETARがありません。

RODN / Kadena
VMC

ROAH_APP

TOWER

05L/23R 3688x91
05R/23L 3688x61

自衛隊 military

9999

030@9KT

30.15

RODN 251456Z AUTO 03009KT 10SM BKN041 21/16 A3015 RMK AO2 SLP216 T02080158 402600191 50001 $

ROTM / Futenma
VMC

ROAH_APP

TOWER

06/24 2740x45

自衛隊 military

9999

030@9KT

30.17

ROTM 251256Z 03009KT 9999 BKN045 22/16 A3017 RMK SLP202 LAST T02170156

RORS / Shimojishima

RORS_APP

TOWER

17/35 3000x60

民間 civil

過去5時間に発表されたMETARがありません。

ROMY / Miyako
VMC

RORS_APP

TOWER

04/22 2000x45

民間 civil

9999

060@14KT

30.09

ROMY 251100Z 06014KT 9999 SCT026 23/19 Q1019

ROIG / New Ishigaki
VMC

RORS_APP

TOWER

22/04 2000x45

民間 civil

9999

070@16KT

30.09

ROIG 251100Z 07016KT 9999 SCT026 24/18 Q1019

RORT / Tarama

RORS_APP

REMOTE

36/18 1500x45

民間 civil

過去5時間に発表されたMETARがありません。

RJKA / Amami

NO RADAR

RADIO

03/21 2000x45

民間 civil

過去5時間に発表されたMETARがありません。

RJKI / Kikai
VMC

NO RADAR

REMOTE

07/25 1200x30

民間 civil

9999

030@12KT

30.15

RJKI 251500Z AUTO 03012KT 9999 FEW030 BKN032 21/15 Q1021

RJKN / Tokunoshima

NO RADAR

REMOTE

19/01 2000x45

民間 civil

過去5時間に発表されたMETARがありません。

RJKB / Okierabu

NO RADAR

REMOTE

04/22 1350x45

民間 civil

過去5時間に発表されたMETARがありません。

RORY / Yoron
VMC

NO RADAR

REMOTE

32/14 1320x30

民間 civil

9999

060@10KT

30.15

RORY 251500Z AUTO 06010KT 9999 SCT029 SCT035 21/15 Q1021

RORK / Kitadaito
VMC

NO RADAR

REMOTE

03/21 1500x45

民間 civil

9999

030@14KT

30.06

RORK 251500Z AUTO 03014KT 9999 SCT024 BKN027 23/19 Q1018

ROMD / Minami-daito
VMC

NO RADAR

REMOTE

02/20 1500x45

民間 civil

9999

040@12KT

30.06

ROMD 251500Z AUTO 04012KT 9999 BKN025 23/19 Q1018

ROYN / Yonaguni
VMC

NO RADAR

REMOTE

26/08 2000x45

民間 civil

9999

120@9KT

30.09

ROYN 251500Z AUTO 12009KT 9999 FEW031 SCT060 24/19 Q1019

RORH / Hateruma

NO RADAR

REMOTE

02/20 800x25

民間 civil

過去5時間に発表されたMETARがありません。

ROKR / Kerama

NO RADAR

REMOTE

02/20 800x25

民間 civil

過去5時間に発表されたMETARがありません。